sensor_id;sensor_type;location;lat;lon;timestamp;temperature;humidity
52867;DHT22;38739;53.324;6.862;2022-10-15T00:01:08;12.20;99.90
52867;DHT22;38739;53.324;6.862;2022-10-15T00:03:38;12.20;99.90
52867;DHT22;38739;53.324;6.862;2022-10-15T00:06:10;12.20;99.90
52867;DHT22;38739;53.324;6.862;2022-10-15T00:08:36;12.20;99.90
52867;DHT22;38739;53.324;6.862;2022-10-15T00:11:09;12.20;99.90
52867;DHT22;38739;53.324;6.862;2022-10-15T00:13:36;12.20;99.90
52867;DHT22;38739;53.324;6.862;2022-10-15T00:16:07;12.20;99.90
52867;DHT22;38739;53.324;6.862;2022-10-15T00:18:37;12.20;99.90
52867;DHT22;38739;53.324;6.862;2022-10-15T00:21:18;12.20;99.90
52867;DHT22;38739;53.324;6.862;2022-10-15T00:23:47;12.20;99.90
52867;DHT22;38739;53.324;6.862;2022-10-15T00:26:16;12.20;99.90
52867;DHT22;38739;53.324;6.862;2022-10-15T00:28:42;12.20;99.90
52867;DHT22;38739;53.324;6.862;2022-10-15T00:31:11;12.20;99.90
52867;DHT22;38739;53.324;6.862;2022-10-15T00:33:37;12.20;99.90
52867;DHT22;38739;53.324;6.862;2022-10-15T00:36:06;12.20;99.90
52867;DHT22;38739;53.324;6.862;2022-10-15T00:38:33;12.20;99.90
52867;DHT22;38739;53.324;6.862;2022-10-15T00:40:59;12.20;99.90
52867;DHT22;38739;53.324;6.862;2022-10-15T00:43:49;12.20;99.90
52867;DHT22;38739;53.324;6.862;2022-10-15T00:46:36;12.20;99.90
52867;DHT22;38739;53.324;6.862;2022-10-15T00:49:17;12.20;99.90
52867;DHT22;38739;53.324;6.862;2022-10-15T00:51:51;12.20;99.90
52867;DHT22;38739;53.324;6.862;2022-10-15T00:54:19;12.20;99.90
52867;DHT22;38739;53.324;6.862;2022-10-15T00:56:46;12.30;99.90
52867;DHT22;38739;53.324;6.862;2022-10-15T00:59:14;12.30;99.90
52867;DHT22;38739;53.324;6.862;2022-10-15T01:01:41;12.30;99.90
52867;DHT22;38739;53.324;6.862;2022-10-15T01:04:06;12.20;99.90
52867;DHT22;38739;53.324;6.862;2022-10-15T01:06:33;12.30;99.90
52867;DHT22;38739;53.324;6.862;2022-10-15T01:08:59;12.30;99.90
52867;DHT22;38739;53.324;6.862;2022-10-15T01:14:09;12.30;99.90
52867;DHT22;38739;53.324;6.862;2022-10-15T01:19:37;12.30;99.90
52867;DHT22;38739;53.324;6.862;2022-10-15T01:22:03;12.30;99.90
52867;DHT22;38739;53.324;6.862;2022-10-15T01:24:49;12.30;99.90
52867;DHT22;38739;53.324;6.862;2022-10-15T01:27:34;12.30;99.90
52867;DHT22;38739;53.324;6.862;2022-10-15T01:30:23;12.30;99.90
52867;DHT22;38739;53.324;6.862;2022-10-15T01:32:53;12.30;99.90
52867;DHT22;38739;53.324;6.862;2022-10-15T01:40:59;12.30;99.90
52867;DHT22;38739;53.324;6.862;2022-10-15T01:43:43;12.20;99.90
52867;DHT22;38739;53.324;6.862;2022-10-15T01:46:15;12.30;99.90
52867;DHT22;38739;53.324;6.862;2022-10-15T01:48:43;12.20;99.90
52867;DHT22;38739;53.324;6.862;2022-10-15T01:51:10;12.20;99.90
52867;DHT22;38739;53.324;6.862;2022-10-15T01:53:37;12.30;99.90
52867;DHT22;38739;53.324;6.862;2022-10-15T01:56:07;12.20;99.90
52867;DHT22;38739;53.324;6.862;2022-10-15T01:58:38;12.30;99.90
52867;DHT22;38739;53.324;6.862;2022-10-15T02:01:04;12.20;99.90
52867;DHT22;38739;53.324;6.862;2022-10-15T02:03:30;12.20;99.90
52867;DHT22;38739;53.324;6.862;2022-10-15T02:06:04;12.20;99.90
52867;DHT22;38739;53.324;6.862;2022-10-15T02:08:42;12.20;99.90
52867;DHT22;38739;53.324;6.862;2022-10-15T02:11:14;12.20;99.90
52867;DHT22;38739;53.324;6.862;2022-10-15T02:14:12;12.20;99.90
52867;DHT22;38739;53.324;6.862;2022-10-15T02:16:44;12.20;99.90
52867;DHT22;38739;53.324;6.862;2022-10-15T02:22:38;12.20;99.90
52867;DHT22;38739;53.324;6.862;2022-10-15T02:25:15;12.20;99.90
52867;DHT22;38739;53.324;6.862;2022-10-15T02:27:44;12.20;99.90
52867;DHT22;38739;53.324;6.862;2022-10-15T02:30:12;12.20;99.90
52867;DHT22;38739;53.324;6.862;2022-10-15T02:32:40;12.20;99.90
52867;DHT22;38739;53.324;6.862;2022-10-15T02:35:08;12.20;99.90
52867;DHT22;38739;53.324;6.862;2022-10-15T02:37:36;12.20;99.90
52867;DHT22;38739;53.324;6.862;2022-10-15T02:40:03;12.20;99.90
52867;DHT22;38739;53.324;6.862;2022-10-15T02:42:32;12.20;99.90
52867;DHT22;38739;53.324;6.862;2022-10-15T02:45:01;12.20;99.90
52867;DHT22;38739;53.324;6.862;2022-10-15T02:47:27;12.20;99.90
52867;DHT22;38739;53.324;6.862;2022-10-15T02:49:56;12.20;99.90
52867;DHT22;38739;53.324;6.862;2022-10-15T02:52:22;12.20;99.90
52867;DHT22;38739;53.324;6.862;2022-10-15T02:54:50;12.20;99.90
52867;DHT22;38739;53.324;6.862;2022-10-15T02:57:16;12.20;99.90
52867;DHT22;38739;53.324;6.862;2022-10-15T02:59:42;12.20;99.90
52867;DHT22;38739;53.324;6.862;2022-10-15T03:02:08;12.20;99.90
52867;DHT22;38739;53.324;6.862;2022-10-15T03:04:33;12.20;99.90
52867;DHT22;38739;53.324;6.862;2022-10-15T03:06:59;12.20;99.90
52867;DHT22;38739;53.324;6.862;2022-10-15T03:09:25;12.20;99.90
52867;DHT22;38739;53.324;6.862;2022-10-15T03:11:50;12.20;99.90
52867;DHT22;38739;53.324;6.862;2022-10-15T03:14:16;12.20;99.90
52867;DHT22;38739;53.324;6.862;2022-10-15T03:16:41;12.20;99.90
52867;DHT22;38739;53.324;6.862;2022-10-15T03:19:07;12.20;99.90
52867;DHT22;38739;53.324;6.862;2022-10-15T03:21:33;12.20;99.90
52867;DHT22;38739;53.324;6.862;2022-10-15T03:23:58;12.20;99.90
52867;DHT22;38739;53.324;6.862;2022-10-15T03:26:24;12.20;99.90
52867;DHT22;38739;53.324;6.862;2022-10-15T03:28:50;12.20;99.90
52867;DHT22;38739;53.324;6.862;2022-10-15T03:31:16;12.20;99.90
52867;DHT22;38739;53.324;6.862;2022-10-15T03:33:41;12.20;99.90
52867;DHT22;38739;53.324;6.862;2022-10-15T03:36:07;12.20;99.90
52867;DHT22;38739;53.324;6.862;2022-10-15T03:38:33;12.20;99.90
52867;DHT22;38739;53.324;6.862;2022-10-15T03:40:59;12.20;99.90
52867;DHT22;38739;53.324;6.862;2022-10-15T03:43:25;12.20;99.90
52867;DHT22;38739;53.324;6.862;2022-10-15T03:45:51;12.20;99.90
52867;DHT22;38739;53.324;6.862;2022-10-15T03:48:18;12.20;99.90
52867;DHT22;38739;53.324;6.862;2022-10-15T03:50:47;12.20;99.90
52867;DHT22;38739;53.324;6.862;2022-10-15T03:53:16;12.20;99.90
52867;DHT22;38739;53.324;6.862;2022-10-15T03:55:41;12.10;99.90
52867;DHT22;38739;53.324;6.862;2022-10-15T03:58:07;12.20;99.90
52867;DHT22;38739;53.324;6.862;2022-10-15T04:00:33;12.10;99.90
52867;DHT22;38739;53.324;6.862;2022-10-15T04:02:58;12.20;99.90
52867;DHT22;38739;53.324;6.862;2022-10-15T04:05:24;12.10;99.90
52867;DHT22;38739;53.324;6.862;2022-10-15T04:07:50;12.10;99.90
52867;DHT22;38739;53.324;6.862;2022-10-15T04:10:15;12.10;99.90
52867;DHT22;38739;53.324;6.862;2022-10-15T04:12:41;12.10;99.90
52867;DHT22;38739;53.324;6.862;2022-10-15T04:15:07;12.20;99.90
52867;DHT22;38739;53.324;6.862;2022-10-15T04:17:33;12.20;99.90
52867;DHT22;38739;53.324;6.862;2022-10-15T04:19:59;12.10;99.90
52867;DHT22;38739;53.324;6.862;2022-10-15T04:22:24;12.20;99.90
52867;DHT22;38739;53.324;6.862;2022-10-15T04:24:50;12.10;99.90
52867;DHT22;38739;53.324;6.862;2022-10-15T04:27:16;12.10;99.90
52867;DHT22;38739;53.324;6.862;2022-10-15T04:29:41;12.10;99.90
52867;DHT22;38739;53.324;6.862;2022-10-15T04:32:07;12.10;99.90
52867;DHT22;38739;53.324;6.862;2022-10-15T04:34:35;12.10;99.90
52867;DHT22;38739;53.324;6.862;2022-10-15T04:37:00;12.10;99.90
52867;DHT22;38739;53.324;6.862;2022-10-15T04:39:26;12.10;99.90
52867;DHT22;38739;53.324;6.862;2022-10-15T04:41:51;12.10;99.90
52867;DHT22;38739;53.324;6.862;2022-10-15T04:44:17;12.10;99.90
52867;DHT22;38739;53.324;6.862;2022-10-15T04:46:43;12.10;99.90
52867;DHT22;38739;53.324;6.862;2022-10-15T04:49:09;12.10;99.90
52867;DHT22;38739;53.324;6.862;2022-10-15T04:51:34;12.10;99.90
52867;DHT22;38739;53.324;6.862;2022-10-15T04:54:00;12.10;99.90
52867;DHT22;38739;53.324;6.862;2022-10-15T04:56:26;12.10;99.90
52867;DHT22;38739;53.324;6.862;2022-10-15T04:58:51;12.10;99.90
52867;DHT22;38739;53.324;6.862;2022-10-15T05:01:19;12.10;99.90
52867;DHT22;38739;53.324;6.862;2022-10-15T05:03:47;12.10;99.90
52867;DHT22;38739;53.324;6.862;2022-10-15T05:06:18;12.10;99.90
52867;DHT22;38739;53.324;6.862;2022-10-15T05:08:44;12.10;99.90
52867;DHT22;38739;53.324;6.862;2022-10-15T05:11:19;12.10;99.90
52867;DHT22;38739;53.324;6.862;2022-10-15T05:13:45;12.10;99.90
52867;DHT22;38739;53.324;6.862;2022-10-15T05:16:22;12.10;99.90
52867;DHT22;38739;53.324;6.862;2022-10-15T05:18:51;12.10;99.90
52867;DHT22;38739;53.324;6.862;2022-10-15T05:21:17;12.10;99.90
52867;DHT22;38739;53.324;6.862;2022-10-15T05:23:43;12.00;99.90
52867;DHT22;38739;53.324;6.862;2022-10-15T05:26:15;12.00;99.90
52867;DHT22;38739;53.324;6.862;2022-10-15T05:28:44;12.00;99.90
52867;DHT22;38739;53.324;6.862;2022-10-15T05:31:12;12.00;99.90
52867;DHT22;38739;53.324;6.862;2022-10-15T05:33:38;12.00;99.90
52867;DHT22;38739;53.324;6.862;2022-10-15T05:36:18;12.00;99.90
52867;DHT22;38739;53.324;6.862;2022-10-15T05:38:50;12.00;99.90
52867;DHT22;38739;53.324;6.862;2022-10-15T05:41:16;11.90;99.90
52867;DHT22;38739;53.324;6.862;2022-10-15T05:43:42;11.90;99.90
52867;DHT22;38739;53.324;6.862;2022-10-15T05:46:08;11.90;99.90
52867;DHT22;38739;53.324;6.862;2022-10-15T05:48:34;11.90;99.90
52867;DHT22;38739;53.324;6.862;2022-10-15T05:51:05;11.90;99.90
52867;DHT22;38739;53.324;6.862;2022-10-15T05:53:31;11.90;99.90
52867;DHT22;38739;53.324;6.862;2022-10-15T05:55:57;11.90;99.90
52867;DHT22;38739;53.324;6.862;2022-10-15T05:58:27;11.90;99.90
52867;DHT22;38739;53.324;6.862;2022-10-15T06:00:58;11.90;99.90
52867;DHT22;38739;53.324;6.862;2022-10-15T06:03:24;11.90;99.90
52867;DHT22;38739;53.324;6.862;2022-10-15T06:05:50;11.90;99.90
52867;DHT22;38739;53.324;6.862;2022-10-15T06:08:16;11.90;99.90
52867;DHT22;38739;53.324;6.862;2022-10-15T06:10:42;11.90;99.90
52867;DHT22;38739;53.324;6.862;2022-10-15T06:13:09;11.90;99.90
52867;DHT22;38739;53.324;6.862;2022-10-15T06:15:40;11.90;99.90
52867;DHT22;38739;53.324;6.862;2022-10-15T06:18:07;11.90;99.90
52867;DHT22;38739;53.324;6.862;2022-10-15T06:20:33;11.90;99.90
52867;DHT22;38739;53.324;6.862;2022-10-15T06:22:59;11.90;99.90
52867;DHT22;38739;53.324;6.862;2022-10-15T06:25:26;11.90;99.90
52867;DHT22;38739;53.324;6.862;2022-10-15T06:27:52;11.90;99.90
52867;DHT22;38739;53.324;6.862;2022-10-15T06:30:18;11.90;99.90
52867;DHT22;38739;53.324;6.862;2022-10-15T06:32:53;11.90;99.90
52867;DHT22;38739;53.324;6.862;2022-10-15T06:35:21;11.90;99.90
52867;DHT22;38739;53.324;6.862;2022-10-15T06:37:47;11.90;99.90
52867;DHT22;38739;53.324;6.862;2022-10-15T06:40:13;11.90;99.90
52867;DHT22;38739;53.324;6.862;2022-10-15T06:42:40;11.90;99.90
52867;DHT22;38739;53.324;6.862;2022-10-15T06:45:07;11.90;99.90
52867;DHT22;38739;53.324;6.862;2022-10-15T06:47:34;11.90;99.90
52867;DHT22;38739;53.324;6.862;2022-10-15T06:50:00;11.90;99.90
52867;DHT22;38739;53.324;6.862;2022-10-15T06:52:25;11.90;99.90
52867;DHT22;38739;53.324;6.862;2022-10-15T06:54:53;11.90;99.90
52867;DHT22;38739;53.324;6.862;2022-10-15T06:57:19;11.90;99.90
52867;DHT22;38739;53.324;6.862;2022-10-15T06:59:44;11.90;99.90
52867;DHT22;38739;53.324;6.862;2022-10-15T07:02:11;12.00;99.90
52867;DHT22;38739;53.324;6.862;2022-10-15T07:04:39;12.00;99.90
52867;DHT22;38739;53.324;6.862;2022-10-15T07:07:04;12.00;99.90
52867;DHT22;38739;53.324;6.862;2022-10-15T07:09:33;12.00;99.90
52867;DHT22;38739;53.324;6.862;2022-10-15T07:11:59;12.00;99.90
52867;DHT22;38739;53.324;6.862;2022-10-15T07:14:25;12.00;99.90
52867;DHT22;38739;53.324;6.862;2022-10-15T07:16:51;12.00;99.90
52867;DHT22;38739;53.324;6.862;2022-10-15T07:19:16;12.00;99.90
52867;DHT22;38739;53.324;6.862;2022-10-15T07:21:42;12.10;99.90
52867;DHT22;38739;53.324;6.862;2022-10-15T07:24:08;12.10;99.90
52867;DHT22;38739;53.324;6.862;2022-10-15T07:26:34;12.10;99.90
52867;DHT22;38739;53.324;6.862;2022-10-15T07:28:59;12.10;99.90
52867;DHT22;38739;53.324;6.862;2022-10-15T07:31:26;12.10;99.90
52867;DHT22;38739;53.324;6.862;2022-10-15T07:33:51;12.20;99.90
52867;DHT22;38739;53.324;6.862;2022-10-15T07:36:17;12.20;99.90
52867;DHT22;38739;53.324;6.862;2022-10-15T07:38:45;12.20;99.90
52867;DHT22;38739;53.324;6.862;2022-10-15T07:41:11;12.20;99.90
52867;DHT22;38739;53.324;6.862;2022-10-15T07:43:37;12.30;99.90
52867;DHT22;38739;53.324;6.862;2022-10-15T07:46:03;12.30;99.90
52867;DHT22;38739;53.324;6.862;2022-10-15T07:48:29;12.40;99.90
52867;DHT22;38739;53.324;6.862;2022-10-15T07:50:56;12.40;99.90
52867;DHT22;38739;53.324;6.862;2022-10-15T07:53:22;12.40;99.90
52867;DHT22;38739;53.324;6.862;2022-10-15T07:55:48;12.50;99.90
52867;DHT22;38739;53.324;6.862;2022-10-15T07:58:13;12.50;99.90
52867;DHT22;38739;53.324;6.862;2022-10-15T08:00:39;12.60;99.90
52867;DHT22;38739;53.324;6.862;2022-10-15T08:03:05;12.70;99.90
52867;DHT22;38739;53.324;6.862;2022-10-15T08:05:30;12.70;99.90
52867;DHT22;38739;53.324;6.862;2022-10-15T08:07:57;12.80;99.90
52867;DHT22;38739;53.324;6.862;2022-10-15T08:10:23;12.80;99.90
52867;DHT22;38739;53.324;6.862;2022-10-15T08:12:48;12.90;99.90
52867;DHT22;38739;53.324;6.862;2022-10-15T08:15:14;13.00;99.90
52867;DHT22;38739;53.324;6.862;2022-10-15T08:17:40;13.00;99.90
52867;DHT22;38739;53.324;6.862;2022-10-15T08:20:06;13.00;99.90
52867;DHT22;38739;53.324;6.862;2022-10-15T08:22:32;13.10;99.90
52867;DHT22;38739;53.324;6.862;2022-10-15T08:24:58;13.10;99.90
52867;DHT22;38739;53.324;6.862;2022-10-15T08:27:24;13.10;99.90
52867;DHT22;38739;53.324;6.862;2022-10-15T08:29:50;13.20;99.90
52867;DHT22;38739;53.324;6.862;2022-10-15T08:32:16;13.20;99.90
52867;DHT22;38739;53.324;6.862;2022-10-15T08:34:41;13.30;99.90
52867;DHT22;38739;53.324;6.862;2022-10-15T08:37:07;13.30;99.90
52867;DHT22;38739;53.324;6.862;2022-10-15T08:39:34;13.40;99.90
52867;DHT22;38739;53.324;6.862;2022-10-15T08:42:03;13.40;99.90
52867;DHT22;38739;53.324;6.862;2022-10-15T08:44:38;13.40;99.90
52867;DHT22;38739;53.324;6.862;2022-10-15T08:47:12;13.50;99.90
52867;DHT22;38739;53.324;6.862;2022-10-15T08:49:54;13.60;99.90
52867;DHT22;38739;53.324;6.862;2022-10-15T08:52:25;13.80;99.90
52867;DHT22;38739;53.324;6.862;2022-10-15T08:54:52;13.90;99.90
52867;DHT22;38739;53.324;6.862;2022-10-15T08:57:27;14.00;99.90
52867;DHT22;38739;53.324;6.862;2022-10-15T09:00:16;14.10;99.90
52867;DHT22;38739;53.324;6.862;2022-10-15T09:08:41;14.50;99.90
52867;DHT22;38739;53.324;6.862;2022-10-15T09:13:48;14.50;99.90
52867;DHT22;38739;53.324;6.862;2022-10-15T09:16:17;14.50;99.90
52867;DHT22;38739;53.324;6.862;2022-10-15T09:18:49;14.50;99.90
52867;DHT22;38739;53.324;6.862;2022-10-15T09:21:17;14.70;99.90
52867;DHT22;38739;53.324;6.862;2022-10-15T09:23:44;15.00;99.90
52867;DHT22;38739;53.324;6.862;2022-10-15T09:26:19;15.10;99.90
52867;DHT22;38739;53.324;6.862;2022-10-15T09:29:45;15.10;99.90
52867;DHT22;38739;53.324;6.862;2022-10-15T09:32:45;15.10;99.90
52867;DHT22;38739;53.324;6.862;2022-10-15T09:35:29;15.10;99.90
52867;DHT22;38739;53.324;6.862;2022-10-15T09:43:01;15.30;99.90
52867;DHT22;38739;53.324;6.862;2022-10-15T09:45:27;15.40;99.90
52867;DHT22;38739;53.324;6.862;2022-10-15T09:47:57;15.50;99.90
52867;DHT22;38739;53.324;6.862;2022-10-15T09:51:05;15.60;99.90
52867;DHT22;38739;53.324;6.862;2022-10-15T09:56:18;15.40;99.90
52867;DHT22;38739;53.324;6.862;2022-10-15T09:58:55;15.30;99.90
52867;DHT22;38739;53.324;6.862;2022-10-15T10:01:26;15.20;99.90
52867;DHT22;38739;53.324;6.862;2022-10-15T10:04:20;15.20;99.90
52867;DHT22;38739;53.324;6.862;2022-10-15T10:06:57;15.20;99.90
52867;DHT22;38739;53.324;6.862;2022-10-15T10:09:26;15.10;99.90
52867;DHT22;38739;53.324;6.862;2022-10-15T10:11:59;15.00;99.90
52867;DHT22;38739;53.324;6.862;2022-10-15T10:14:31;14.90;99.90
52867;DHT22;38739;53.324;6.862;2022-10-15T10:17:11;14.90;99.90
52867;DHT22;38739;53.324;6.862;2022-10-15T10:19:39;14.70;99.90
52867;DHT22;38739;53.324;6.862;2022-10-15T10:22:13;14.70;99.90
52867;DHT22;38739;53.324;6.862;2022-10-15T10:24:39;14.60;99.90
52867;DHT22;38739;53.324;6.862;2022-10-15T10:27:17;14.60;99.90
52867;DHT22;38739;53.324;6.862;2022-10-15T10:29:54;14.50;99.90
52867;DHT22;38739;53.324;6.862;2022-10-15T10:32:25;14.60;99.90
52867;DHT22;38739;53.324;6.862;2022-10-15T10:34:52;14.50;99.90
52867;DHT22;38739;53.324;6.862;2022-10-15T10:37:19;14.40;99.90
52867;DHT22;38739;53.324;6.862;2022-10-15T10:39:46;14.40;99.90
52867;DHT22;38739;53.324;6.862;2022-10-15T10:44:42;14.30;99.90
52867;DHT22;38739;53.324;6.862;2022-10-15T10:47:16;14.20;99.90
52867;DHT22;38739;53.324;6.862;2022-10-15T10:49:53;14.20;99.90
52867;DHT22;38739;53.324;6.862;2022-10-15T10:52:26;14.20;99.90
52867;DHT22;38739;53.324;6.862;2022-10-15T10:55:03;14.20;99.90
52867;DHT22;38739;53.324;6.862;2022-10-15T10:58:08;14.20;99.90
52867;DHT22;38739;53.324;6.862;2022-10-15T11:00:42;14.10;99.90
52867;DHT22;38739;53.324;6.862;2022-10-15T11:03:22;14.10;99.90
52867;DHT22;38739;53.324;6.862;2022-10-15T11:11:49;14.10;99.90
52867;DHT22;38739;53.324;6.862;2022-10-15T11:17:16;14.10;99.90
52867;DHT22;38739;53.324;6.862;2022-10-15T11:19:57;14.20;99.90
52867;DHT22;38739;53.324;6.862;2022-10-15T11:22:28;14.30;99.90
52867;DHT22;38739;53.324;6.862;2022-10-15T11:25:06;14.30;99.90
52867;DHT22;38739;53.324;6.862;2022-10-15T11:28:12;14.40;99.90
52867;DHT22;38739;53.324;6.862;2022-10-15T11:30:48;14.40;99.90
52867;DHT22;38739;53.324;6.862;2022-10-15T11:38:46;14.50;99.90
52867;DHT22;38739;53.324;6.862;2022-10-15T11:41:52;14.60;99.90
52867;DHT22;38739;53.324;6.862;2022-10-15T11:49:46;14.70;99.90
52867;DHT22;38739;53.324;6.862;2022-10-15T11:52:40;14.80;99.90
52867;DHT22;38739;53.324;6.862;2022-10-15T11:55:16;14.90;99.90
52867;DHT22;38739;53.324;6.862;2022-10-15T11:57:45;14.90;99.90
52867;DHT22;38739;53.324;6.862;2022-10-15T12:00:38;15.00;99.90
52867;DHT22;38739;53.324;6.862;2022-10-15T12:05:51;15.10;99.90
52867;DHT22;38739;53.324;6.862;2022-10-15T12:08:18;15.00;99.90
52867;DHT22;38739;53.324;6.862;2022-10-15T12:16:38;15.00;99.90
52867;DHT22;38739;53.324;6.862;2022-10-15T12:21:50;15.10;99.90
52867;DHT22;38739;53.324;6.862;2022-10-15T12:35:05;15.20;99.90
52867;DHT22;38739;53.324;6.862;2022-10-15T12:37:33;15.20;99.90
52867;DHT22;38739;53.324;6.862;2022-10-15T12:40:22;15.20;99.90
52867;DHT22;38739;53.324;6.862;2022-10-15T12:43:01;15.20;99.90
52867;DHT22;38739;53.324;6.862;2022-10-15T12:45:38;15.20;99.90
52867;DHT22;38739;53.324;6.862;2022-10-15T12:50:34;15.20;99.90
52867;DHT22;38739;53.324;6.862;2022-10-15T13:11:30;15.10;99.90
52867;DHT22;38739;53.324;6.862;2022-10-15T13:14:02;15.20;99.90
52867;DHT22;38739;53.324;6.862;2022-10-15T13:16:37;15.20;99.90
52867;DHT22;38739;53.324;6.862;2022-10-15T13:19:19;15.10;99.90
52867;DHT22;38739;53.324;6.862;2022-10-15T13:21:58;15.10;99.90
52867;DHT22;38739;53.324;6.862;2022-10-15T13:24:25;15.10;99.90
52867;DHT22;38739;53.324;6.862;2022-10-15T13:26:53;15.00;99.90
52867;DHT22;38739;53.324;6.862;2022-10-15T13:29:22;15.00;99.90
52867;DHT22;38739;53.324;6.862;2022-10-15T13:31:49;15.00;99.90
52867;DHT22;38739;53.324;6.862;2022-10-15T13:34:29;15.00;99.90
52867;DHT22;38739;53.324;6.862;2022-10-15T13:36:58;15.00;99.90
52867;DHT22;38739;53.324;6.862;2022-10-15T13:42:15;15.00;99.90
52867;DHT22;38739;53.324;6.862;2022-10-15T13:44:42;15.00;99.90
52867;DHT22;38739;53.324;6.862;2022-10-15T13:47:34;15.00;99.90
52867;DHT22;38739;53.324;6.862;2022-10-15T13:50:31;15.00;99.90
52867;DHT22;38739;53.324;6.862;2022-10-15T13:55:36;15.10;99.90
52867;DHT22;38739;53.324;6.862;2022-10-15T13:58:21;15.20;99.90
52867;DHT22;38739;53.324;6.862;2022-10-15T14:03:24;15.20;99.90
52867;DHT22;38739;53.324;6.862;2022-10-15T14:05:52;15.20;99.90
52867;DHT22;38739;53.324;6.862;2022-10-15T14:08:25;15.20;99.90
52867;DHT22;38739;53.324;6.862;2022-10-15T14:10:51;15.10;99.90
52867;DHT22;38739;53.324;6.862;2022-10-15T14:13:17;15.10;99.90
52867;DHT22;38739;53.324;6.862;2022-10-15T14:16:19;15.10;99.90
52867;DHT22;38739;53.324;6.862;2022-10-15T14:18:41;15.00;99.90
52867;DHT22;38739;53.324;6.862;2022-10-15T14:21:18;15.00;99.90
52867;DHT22;38739;53.324;6.862;2022-10-15T14:24:18;15.00;99.90
52867;DHT22;38739;53.324;6.862;2022-10-15T14:26:45;15.00;99.90
52867;DHT22;38739;53.324;6.862;2022-10-15T14:29:33;14.90;99.90
52867;DHT22;38739;53.324;6.862;2022-10-15T14:32:00;14.90;99.90
52867;DHT22;38739;53.324;6.862;2022-10-15T14:36:59;14.90;99.90
52867;DHT22;38739;53.324;6.862;2022-10-15T14:39:35;14.90;99.90
52867;DHT22;38739;53.324;6.862;2022-10-15T14:42:03;14.90;99.90
52867;DHT22;38739;53.324;6.862;2022-10-15T14:44:46;14.80;99.90
52867;DHT22;38739;53.324;6.862;2022-10-15T14:49:47;14.90;99.90
52867;DHT22;38739;53.324;6.862;2022-10-15T14:52:15;14.90;99.90
52867;DHT22;38739;53.324;6.862;2022-10-15T14:55:00;14.90;99.90
52867;DHT22;38739;53.324;6.862;2022-10-15T14:57:29;14.90;99.90
52867;DHT22;38739;53.324;6.862;2022-10-15T14:59:56;15.00;99.90
52867;DHT22;38739;53.324;6.862;2022-10-15T15:02:25;14.90;99.90
52867;DHT22;38739;53.324;6.862;2022-10-15T15:07:32;14.90;99.90
52867;DHT22;38739;53.324;6.862;2022-10-15T15:09:58;14.90;99.90
52867;DHT22;38739;53.324;6.862;2022-10-15T15:12:25;14.90;99.90
52867;DHT22;38739;53.324;6.862;2022-10-15T15:14:52;14.90;99.90
52867;DHT22;38739;53.324;6.862;2022-10-15T15:17:26;14.90;99.90
52867;DHT22;38739;53.324;6.862;2022-10-15T15:19:53;14.90;99.90
52867;DHT22;38739;53.324;6.862;2022-10-15T15:22:38;14.90;99.90
52867;DHT22;38739;53.324;6.862;2022-10-15T15:27:42;14.90;99.90
52867;DHT22;38739;53.324;6.862;2022-10-15T15:30:20;14.80;99.90
52867;DHT22;38739;53.324;6.862;2022-10-15T15:32:47;14.90;99.90
52867;DHT22;38739;53.324;6.862;2022-10-15T15:38:06;14.90;99.90
52867;DHT22;38739;53.324;6.862;2022-10-15T15:40:33;15.00;99.90
52867;DHT22;38739;53.324;6.862;2022-10-15T15:42:59;14.90;99.90
52867;DHT22;38739;53.324;6.862;2022-10-15T15:45:25;15.00;99.90
52867;DHT22;38739;53.324;6.862;2022-10-15T15:47:52;14.90;99.90
52867;DHT22;38739;53.324;6.862;2022-10-15T15:50:19;14.90;99.90
52867;DHT22;38739;53.324;6.862;2022-10-15T15:52:45;14.90;99.90
52867;DHT22;38739;53.324;6.862;2022-10-15T15:55:12;14.90;99.90
52867;DHT22;38739;53.324;6.862;2022-10-15T15:57:38;14.90;99.90
52867;DHT22;38739;53.324;6.862;2022-10-15T16:00:07;14.80;99.90
52867;DHT22;38739;53.324;6.862;2022-10-15T16:02:34;14.80;99.90
52867;DHT22;38739;53.324;6.862;2022-10-15T16:04:59;14.80;99.90
52867;DHT22;38739;53.324;6.862;2022-10-15T16:07:27;14.80;99.90
52867;DHT22;38739;53.324;6.862;2022-10-15T16:09:55;14.80;99.90
52867;DHT22;38739;53.324;6.862;2022-10-15T16:12:21;14.80;99.90
52867;DHT22;38739;53.324;6.862;2022-10-15T16:14:47;14.80;99.90
52867;DHT22;38739;53.324;6.862;2022-10-15T16:17:12;14.80;99.90
52867;DHT22;38739;53.324;6.862;2022-10-15T16:19:38;14.80;99.90
52867;DHT22;38739;53.324;6.862;2022-10-15T16:22:04;14.80;99.90
52867;DHT22;38739;53.324;6.862;2022-10-15T16:24:30;14.80;99.90
52867;DHT22;38739;53.324;6.862;2022-10-15T16:26:55;14.70;99.90
52867;DHT22;38739;53.324;6.862;2022-10-15T16:29:21;14.70;99.90
52867;DHT22;38739;53.324;6.862;2022-10-15T16:31:47;14.70;99.90
52867;DHT22;38739;53.324;6.862;2022-10-15T16:34:12;14.70;99.90
52867;DHT22;38739;53.324;6.862;2022-10-15T16:36:38;14.60;99.90
52867;DHT22;38739;53.324;6.862;2022-10-15T16:39:05;14.60;99.90
52867;DHT22;38739;53.324;6.862;2022-10-15T16:41:31;14.60;99.90
52867;DHT22;38739;53.324;6.862;2022-10-15T16:43:56;14.50;99.90
52867;DHT22;38739;53.324;6.862;2022-10-15T16:46:22;14.50;99.90
52867;DHT22;38739;53.324;6.862;2022-10-15T16:48:55;14.50;99.90
52867;DHT22;38739;53.324;6.862;2022-10-15T16:51:23;14.40;99.90
52867;DHT22;38739;53.324;6.862;2022-10-15T16:53:49;14.40;99.90
52867;DHT22;38739;53.324;6.862;2022-10-15T16:56:21;14.40;99.90
52867;DHT22;38739;53.324;6.862;2022-10-15T16:58:47;14.40;99.90
52867;DHT22;38739;53.324;6.862;2022-10-15T17:01:19;14.40;99.90
52867;DHT22;38739;53.324;6.862;2022-10-15T17:03:45;14.30;99.90
52867;DHT22;38739;53.324;6.862;2022-10-15T17:06:15;14.30;99.90
52867;DHT22;38739;53.324;6.862;2022-10-15T17:08:50;14.30;99.90
52867;DHT22;38739;53.324;6.862;2022-10-15T17:11:27;14.30;99.90
52867;DHT22;38739;53.324;6.862;2022-10-15T17:13:55;14.20;99.90
52867;DHT22;38739;53.324;6.862;2022-10-15T17:16:28;14.20;99.90
52867;DHT22;38739;53.324;6.862;2022-10-15T17:18:55;14.20;99.90
52867;DHT22;38739;53.324;6.862;2022-10-15T17:21:26;14.10;99.90
52867;DHT22;38739;53.324;6.862;2022-10-15T17:23:54;14.10;99.90
52867;DHT22;38739;53.324;6.862;2022-10-15T17:26:23;14.10;99.90
52867;DHT22;38739;53.324;6.862;2022-10-15T17:28:50;14.00;99.90
52867;DHT22;38739;53.324;6.862;2022-10-15T17:31:19;14.00;99.90
52867;DHT22;38739;53.324;6.862;2022-10-15T17:33:46;14.00;99.90
52867;DHT22;38739;53.324;6.862;2022-10-15T17:36:17;14.00;99.90
52867;DHT22;38739;53.324;6.862;2022-10-15T17:38:44;14.00;99.90
52867;DHT22;38739;53.324;6.862;2022-10-15T17:41:15;13.90;99.90
52867;DHT22;38739;53.324;6.862;2022-10-15T17:43:41;13.90;99.90
52867;DHT22;38739;53.324;6.862;2022-10-15T17:46:11;13.90;99.90